Guangnan, China
Current Conditions -  °F | °C
As of 4:00 PM on Sunday 23 Nov 2014 (Local Time) from ZPPP Reporting Station
Clear Clear  
Wind Chill: 64°   Ceiling: Unl
Heat Index: 64°   Visibility: 6mi
Dew Point: 37°   Wind: 20mph
Humidity: 37%   Direction: 220°SW
Pressure: 30.06"   Gusts: NA
Location:  24.07°N, 105.07°E
Report Text: ZPPP 230800Z 22009MPS CAVOK 18/03 Q1018 NOSIG
Loading
Personal Weather Stations






























Interactive Weather Map New forecast layout! Learn more

10-Day Weather Forecast

Advertisements
Track Severe Weather on mobile